This is the latest recevied weather packets stored in our database for station/object SP6KBU-8. If no packets are shown the sender has not sent any weather packets the latest 10 day(s).
| Time | Temp. | Humidity | Pressure | Rain* | Wind** | Luminosity | Snow |
|---|---|---|---|---|---|---|---|
| 1777781154 | 15.56° C | 35% | 1018.3 hPa | - | - | - | - |
| 1777780256 | 15.56° C | 34% | 1018.3 hPa | - | - | - | - |
| 1777779356 | 15.56° C | 34% | 1018.4 hPa | - | - | - | - |
| 1777777558 | 15.56° C | 34% | 1018.3 hPa | - | - | - | - |
| 1777776658 | 15.56° C | 34% | 1018.4 hPa | - | - | - | - |
| 1777775759 | 15° C | 35% | 1018.5 hPa | - | - | - | - |
| 1777774860 | 15° C | 36% | 1018.6 hPa | - | - | - | - |
| 1777773960 | 15° C | 37% | 1018.6 hPa | - | - | - | - |
| 1777773060 | 14.44° C | 37% | 1018.8 hPa | - | - | - | - |
| 1777772161 | 14.44° C | 37% | 1018.8 hPa | - | - | - | - |
| 1777771263 | 14.44° C | 38% | 1018.8 hPa | - | - | - | - |
| 1777770364 | 14.44° C | 39% | 1018.9 hPa | - | - | - | - |
| 1777769465 | 13.89° C | 39% | 1019.1 hPa | - | - | - | - |
| 1777768565 | 13.89° C | 41% | 1019.1 hPa | - | - | - | - |
| 1777767665 | 13.89° C | 40% | 1019.3 hPa | - | - | - | - |
| 1777766765 | 13.89° C | 41% | 1019.3 hPa | - | - | - | - |
| 1777765865 | 13.89° C | 41% | 1019.4 hPa | - | - | - | - |
| 1777764965 | 13.33° C | 44% | 1019.5 hPa | - | - | - | - |
| 1777764067 | 13.33° C | 45% | 1019.7 hPa | - | - | - | - |
| 1777763167 | 12.78° C | 47% | 1019.8 hPa | - | - | - | - |
| 1777762268 | 12.22° C | 48% | 1019.8 hPa | - | - | - | - |
| 1777761370 | 11.67° C | 51% | 1020 hPa | - | - | - | - |
| 1777760471 | 11.67° C | 49% | 1020 hPa | - | - | - | - |
| 1777759572 | 12.22° C | 48% | 1020 hPa | - | - | - | - |
| 1777758673 | 12.22° C | 49% | 1020.1 hPa | - | - | - | - |
* Rain since midnight (hover to see other rain measurements)
** Current wind speed in m/s (hover to see current wind gust speed)